createdAt,value
2022-08-25T00:02:13.062Z,3.90
2022-08-25T00:04:39.512Z,3.25
2022-08-25T00:07:07.704Z,4.40
2022-08-25T00:09:35.316Z,3.75
2022-08-25T00:12:03.315Z,3.83
2022-08-25T00:14:33.530Z,3.87
2022-08-25T00:17:00.441Z,3.63
2022-08-25T00:19:33.650Z,3.80
2022-08-25T00:22:01.559Z,3.70
2022-08-25T00:24:28.957Z,3.78
2022-08-25T00:26:57.595Z,3.20
2022-08-25T00:29:28.002Z,3.40
2022-08-25T00:31:55.760Z,4.00
2022-08-25T00:34:27.081Z,3.78
2022-08-25T00:36:53.823Z,3.20
2022-08-25T00:39:22.361Z,3.20
2022-08-25T00:41:51.362Z,3.63
2022-08-25T00:44:18.752Z,2.78
2022-08-25T00:46:48.963Z,3.53
2022-08-25T00:49:33.942Z,3.20
2022-08-25T00:52:13.922Z,3.13
2022-08-25T00:54:54.718Z,3.25
2022-08-25T00:57:33.949Z,3.70
2022-08-25T01:00:06.070Z,3.63
2022-08-25T01:02:32.740Z,3.35
2022-08-25T01:04:59.305Z,3.20
2022-08-25T01:07:25.976Z,3.80
2022-08-25T01:09:53.514Z,3.63
2022-08-25T01:12:20.809Z,4.00
2022-08-25T01:14:49.961Z,3.85
2022-08-25T01:17:17.062Z,3.37
2022-08-25T01:19:43.476Z,3.47
2022-08-25T01:22:12.050Z,3.45
2022-08-25T01:24:46.947Z,3.83
2022-08-25T01:27:13.942Z,2.83
2022-08-25T01:29:41.389Z,3.30
2022-08-25T01:32:12.123Z,3.45
2022-08-25T01:34:42.370Z,3.42
2022-08-25T01:37:13.180Z,3.50
2022-08-25T01:39:40.895Z,3.22
2022-08-25T01:42:08.948Z,2.90
2022-08-25T01:44:41.137Z,3.85
2022-08-25T01:47:08.265Z,3.30
2022-08-25T01:49:35.670Z,3.35
2022-08-25T01:52:32.882Z,3.35
2022-08-25T01:54:59.364Z,2.87
2022-08-25T01:57:25.935Z,3.30
2022-08-25T01:59:52.324Z,3.80
2022-08-25T02:02:18.947Z,2.92
2022-08-25T02:04:45.583Z,2.80
2022-08-25T02:07:11.998Z,3.20
2022-08-25T02:09:38.832Z,3.03
2022-08-25T02:12:05.506Z,3.05
2022-08-25T02:14:32.247Z,2.90
2022-08-25T02:16:58.853Z,2.92
2022-08-25T02:19:25.977Z,3.10
2022-08-25T02:21:53.517Z,2.60
2022-08-25T02:24:20.061Z,2.72
2022-08-25T02:26:46.601Z,2.83
2022-08-25T02:29:13.085Z,3.30
2022-08-25T02:31:39.575Z,2.77
2022-08-25T02:34:07.561Z,3.03
2022-08-25T02:36:34.838Z,3.28
2022-08-25T02:39:01.366Z,3.25
2022-08-25T02:41:31.627Z,2.65
2022-08-25T02:43:59.986Z,3.03
2022-08-25T02:46:27.222Z,3.33
2022-08-25T02:48:53.940Z,2.70
2022-08-25T02:51:22.955Z,2.90
2022-08-25T02:53:49.970Z,3.03
2022-08-25T02:56:18.653Z,3.30
2022-08-25T02:58:46.059Z,3.55
2022-08-25T03:01:13.230Z,3.47
2022-08-25T03:03:41.417Z,3.45
2022-08-25T03:06:12.763Z,3.40
2022-08-25T03:08:40.184Z,3.30
2022-08-25T03:11:07.217Z,4.05
2022-08-25T03:13:34.041Z,3.17
2022-08-25T03:16:02.886Z,3.45
2022-08-25T03:18:30.742Z,3.45
2022-08-25T03:20:57.933Z,3.70
2022-08-25T03:23:25.053Z,3.30
2022-08-25T03:26:12.836Z,3.42
2022-08-25T03:28:39.452Z,3.88
2022-08-25T03:31:05.997Z,3.38
2022-08-25T03:33:32.538Z,3.10
2022-08-25T03:35:59.454Z,3.40
2022-08-25T03:38:26.961Z,3.50
2022-08-25T03:40:54.165Z,3.30
2022-08-25T03:43:21.343Z,2.97
2022-08-25T03:45:48.031Z,3.07
2022-08-25T03:48:16.092Z,3.53
2022-08-25T03:50:51.460Z,3.42
2022-08-25T03:53:19.076Z,4.28
2022-08-25T03:55:45.613Z,3.83
2022-08-25T03:58:12.499Z,4.23
2022-08-25T04:00:39.475Z,4.13
2022-08-25T04:03:06.193Z,3.72
2022-08-25T04:05:32.947Z,4.00
2022-08-25T04:08:01.788Z,4.00
2022-08-25T04:10:29.742Z,3.60
2022-08-25T04:12:56.973Z,4.40
2022-08-25T04:15:24.429Z,3.83
2022-08-25T04:17:54.992Z,3.80
2022-08-25T04:20:21.744Z,3.70
2022-08-25T04:22:48.166Z,4.30
2022-08-25T04:25:14.612Z,4.25
2022-08-25T04:27:41.255Z,3.78
2022-08-25T04:30:08.369Z,4.10
2022-08-25T04:32:36.833Z,4.10
2022-08-25T04:35:05.192Z,4.07
2022-08-25T04:37:31.737Z,3.70
2022-08-25T04:39:58.229Z,4.40
2022-08-25T04:42:26.496Z,4.50
2022-08-25T04:44:53.549Z,4.68
2022-08-25T04:47:19.997Z,4.37
2022-08-25T04:49:46.475Z,4.35
2022-08-25T04:52:14.361Z,4.07
2022-08-25T04:54:41.127Z,3.85
2022-08-25T04:57:07.498Z,4.20
2022-08-25T04:59:34.140Z,4.00
2022-08-25T05:02:03.012Z,3.97
2022-08-25T05:04:31.095Z,3.88
2022-08-25T05:06:58.130Z,3.85
2022-08-25T05:09:25.764Z,4.20
2022-08-25T05:12:00.661Z,3.90
2022-08-25T05:14:27.165Z,3.65
2022-08-25T05:16:55.215Z,4.75
2022-08-25T05:19:30.884Z,4.25
2022-08-25T05:21:57.733Z,5.15
2022-08-25T05:24:24.551Z,4.90
2022-08-25T05:26:51.025Z,4.90
2022-08-25T05:29:17.592Z,4.88
2022-08-25T05:31:50.081Z,4.53
2022-08-25T05:34:18.719Z,5.10
2022-08-25T05:36:45.398Z,5.00
2022-08-25T05:39:11.920Z,5.13
2022-08-25T05:41:38.833Z,4.57
2022-08-25T05:44:05.601Z,4.70
2022-08-25T05:46:32.196Z,5.20
2022-08-25T05:48:59.051Z,4.73
2022-08-25T05:51:26.723Z,4.00
2022-08-25T05:53:53.813Z,4.55
2022-08-25T05:56:20.319Z,4.22
2022-08-25T05:58:47.018Z,3.97
2022-08-25T06:01:43.487Z,4.20
2022-08-25T06:04:11.801Z,4.00
2022-08-25T06:06:39.368Z,4.22
2022-08-25T06:09:08.586Z,4.72
2022-08-25T06:11:36.694Z,4.70
2022-08-25T06:14:03.628Z,4.50
2022-08-25T06:16:30.533Z,3.97
2022-08-25T06:18:57.247Z,4.63
2022-08-25T06:21:23.719Z,4.93
2022-08-25T06:23:50.210Z,5.32
2022-08-25T06:26:21.116Z,5.07
2022-08-25T06:28:50.683Z,4.93
2022-08-25T06:31:17.286Z,5.53
2022-08-25T06:33:44.419Z,5.25
2022-08-25T06:36:10.960Z,5.20
2022-08-25T06:38:37.508Z,5.50
2022-08-25T06:41:05.715Z,4.32
2022-08-25T06:43:34.160Z,5.00
2022-08-25T06:46:15.330Z,5.05
2022-08-25T06:48:42.431Z,4.45
2022-08-25T06:51:13.960Z,4.87
2022-08-25T06:53:41.325Z,4.97
2022-08-25T06:56:08.383Z,4.85
2022-08-25T06:58:35.337Z,4.97
2022-08-25T07:01:15.695Z,5.05
2022-08-25T07:03:46.579Z,5.37
2022-08-25T07:06:14.678Z,4.70
2022-08-25T07:08:45.825Z,5.18
2022-08-25T07:11:16.597Z,4.90
2022-08-25T07:13:45.010Z,4.55
2022-08-25T07:16:12.017Z,4.33
2022-08-25T07:18:39.087Z,4.35
2022-08-25T07:21:09.175Z,4.03
2022-08-25T07:23:36.210Z,3.40
2022-08-25T07:26:36.846Z,3.58
2022-08-25T07:29:08.164Z,3.00
2022-08-25T07:31:35.358Z,2.50
2022-08-25T07:34:20.498Z,2.40
2022-08-25T07:36:47.501Z,3.03
2022-08-25T07:39:13.920Z,2.67
2022-08-25T07:41:42.175Z,2.20
2022-08-25T07:44:11.055Z,2.25
2022-08-25T07:46:38.443Z,2.67
2022-08-25T07:49:16.452Z,2.53
2022-08-25T07:52:05.360Z,2.92
2022-08-25T07:54:34.551Z,2.10
2022-08-25T07:57:02.423Z,2.70
2022-08-25T07:59:29.274Z,2.50
2022-08-25T08:01:55.742Z,2.72
2022-08-25T08:04:23.582Z,2.30
2022-08-25T08:06:53.345Z,2.60
2022-08-25T08:09:19.756Z,2.40
2022-08-25T08:11:53.651Z,2.72
2022-08-25T08:14:20.949Z,2.88
2022-08-25T08:16:47.444Z,2.90
2022-08-25T08:19:13.880Z,2.80
2022-08-25T08:21:40.488Z,2.45
2022-08-25T08:24:19.545Z,3.28
2022-08-25T08:26:58.931Z,3.15
2022-08-25T08:29:26.168Z,2.90
2022-08-25T08:31:53.249Z,2.80
2022-08-25T08:34:19.769Z,3.28
2022-08-25T08:36:51.450Z,3.20
2022-08-25T08:39:17.996Z,3.35
2022-08-25T08:42:16.782Z,3.10
2022-08-25T08:44:55.371Z,3.10
2022-08-25T08:47:43.167Z,2.90
2022-08-25T08:50:34.603Z,2.65
2022-08-25T08:53:07.371Z,2.97
2022-08-25T08:55:52.487Z,3.38
2022-08-25T08:58:54.924Z,3.00
2022-08-25T09:01:46.829Z,3.15
2022-08-25T09:04:37.783Z,3.20
2022-08-25T09:07:11.177Z,2.75
2022-08-25T09:09:41.534Z,3.47
2022-08-25T09:12:13.137Z,2.90
2022-08-25T09:14:54.615Z,2.85
2022-08-25T09:17:36.661Z,2.90
2022-08-25T09:20:18.605Z,3.30
2022-08-25T09:23:22.799Z,3.30
2022-08-25T09:26:13.999Z,3.13
2022-08-25T09:28:51.300Z,3.50
2022-08-25T09:31:30.570Z,2.95
2022-08-25T09:34:00.788Z,2.95
2022-08-25T09:36:28.571Z,3.03
2022-08-25T09:38:55.773Z,3.10
2022-08-25T09:41:56.528Z,2.90
2022-08-25T09:44:31.244Z,3.40
2022-08-25T09:47:13.414Z,2.78
2022-08-25T09:49:43.853Z,3.10
2022-08-25T09:52:41.233Z,3.10
2022-08-25T09:55:08.129Z,3.17
2022-08-25T09:57:44.561Z,3.35
2022-08-25T10:00:15.976Z,3.17
2022-08-25T10:02:45.153Z,3.35
2022-08-25T10:05:23.961Z,3.10
2022-08-25T10:07:55.717Z,3.63
2022-08-25T10:10:32.964Z,3.72
2022-08-25T10:13:03.320Z,3.70
2022-08-25T10:15:36.165Z,3.70
2022-08-25T10:18:26.383Z,3.30
2022-08-25T10:21:11.012Z,3.65
2022-08-25T10:23:44.748Z,3.25
2022-08-25T10:26:22.485Z,3.53
2022-08-25T10:29:13.147Z,3.70
2022-08-25T10:31:59.284Z,3.57
2022-08-25T10:34:54.577Z,3.10
2022-08-25T10:37:42.508Z,3.40
2022-08-25T10:40:27.427Z,3.28
2022-08-25T10:43:07.584Z,2.78
2022-08-25T10:45:46.136Z,2.90
2022-08-25T10:48:24.697Z,3.10
2022-08-25T10:50:54.388Z,2.83
2022-08-25T10:53:28.091Z,3.30
2022-08-25T10:56:14.339Z,2.53
2022-08-25T10:59:09.399Z,2.47
2022-08-25T11:01:54.185Z,2.42
2022-08-25T11:04:37.889Z,2.60
2022-08-25T11:07:16.764Z,2.35
2022-08-25T11:09:49.747Z,2.38
2022-08-25T11:12:31.443Z,2.40
2022-08-25T11:15:04.164Z,2.20
2022-08-25T11:17:52.568Z,2.38
2022-08-25T11:20:28.295Z,2.20
2022-08-25T11:23:20.197Z,2.10
2022-08-25T11:25:52.062Z,2.90
2022-08-25T11:28:35.815Z,1.80
2022-08-25T11:31:04.280Z,2.00
2022-08-25T11:33:32.406Z,2.20
2022-08-25T11:36:20.791Z,2.03
2022-08-25T11:39:24.352Z,1.77
2022-08-25T11:42:11.536Z,1.52
2022-08-25T11:45:01.998Z,2.03
2022-08-25T11:48:06.654Z,1.50
2022-08-25T11:50:36.551Z,1.92
2022-08-25T11:53:26.712Z,1.70
2022-08-25T11:56:02.447Z,1.80
2022-08-25T11:58:45.099Z,1.95
2022-08-25T12:01:40.582Z,1.80
2022-08-25T12:04:30.414Z,2.05
2022-08-25T12:07:07.025Z,2.30
2022-08-25T12:09:54.673Z,2.30
2022-08-25T12:12:32.125Z,2.05
2022-08-25T12:15:23.582Z,2.00
2022-08-25T12:18:22.023Z,1.70
2022-08-25T12:20:55.007Z,1.90
2022-08-25T12:23:36.915Z,1.77
2022-08-25T12:26:56.594Z,1.98
2022-08-25T12:29:32.466Z,1.83
2022-08-25T12:32:10.954Z,1.67
2022-08-25T12:34:54.178Z,1.60
2022-08-25T12:37:23.605Z,1.75
2022-08-25T12:39:49.978Z,2.00
2022-08-25T12:42:29.722Z,1.67
2022-08-25T12:45:32.835Z,2.10
2022-08-25T12:48:25.295Z,1.53
2022-08-25T12:51:20.721Z,1.95
2022-08-25T12:53:53.227Z,1.95
2022-08-25T12:56:26.538Z,2.40
2022-08-25T12:59:10.333Z,1.98
2022-08-25T13:01:49.440Z,2.10
2022-08-25T13:04:47.429Z,1.80
2022-08-25T13:07:21.984Z,1.70
2022-08-25T13:10:11.125Z,1.85
2022-08-25T13:12:46.935Z,2.00
2022-08-25T13:15:24.892Z,2.23
2022-08-25T13:17:51.393Z,1.90
2022-08-25T13:20:29.145Z,1.90
2022-08-25T13:23:00.164Z,2.10
2022-08-25T13:25:32.669Z,1.80
2022-08-25T13:28:06.010Z,2.30
2022-08-25T13:30:37.086Z,1.92
2022-08-25T13:33:21.804Z,2.10
2022-08-25T13:36:14.547Z,2.05
2022-08-25T13:38:41.683Z,1.65
2022-08-25T13:41:23.792Z,2.17
2022-08-25T13:43:57.019Z,2.13
2022-08-25T13:46:27.668Z,2.08
2022-08-25T13:49:05.097Z,1.80
2022-08-25T13:51:31.944Z,1.92
2022-08-25T13:54:06.183Z,1.90
2022-08-25T13:56:41.848Z,2.00
2022-08-25T13:59:35.180Z,2.13
2022-08-25T14:02:08.739Z,1.85
2022-08-25T14:04:50.496Z,1.95
2022-08-25T14:07:21.145Z,1.80
2022-08-25T14:09:58.174Z,1.65
2022-08-25T14:12:33.712Z,1.60
2022-08-25T14:15:04.873Z,2.03
2022-08-25T14:17:39.031Z,2.05
2022-08-25T14:20:19.261Z,2.10
2022-08-25T14:22:46.132Z,2.15
2022-08-25T14:25:12.716Z,1.80
2022-08-25T14:28:03.512Z,1.70
2022-08-25T14:30:43.307Z,1.83
2022-08-25T14:33:10.928Z,1.90
2022-08-25T14:35:38.223Z,1.80
2022-08-25T14:38:10.968Z,1.70
2022-08-25T14:40:37.789Z,1.80
2022-08-25T14:43:04.411Z,1.80
2022-08-25T14:45:31.564Z,1.80
2022-08-25T14:48:04.540Z,1.63
2022-08-25T14:50:37.476Z,1.67
2022-08-25T14:53:09.164Z,1.70
2022-08-25T14:55:36.043Z,1.67
2022-08-25T14:58:02.638Z,1.70
2022-08-25T15:00:29.348Z,2.00
2022-08-25T15:02:56.073Z,2.00
2022-08-25T15:05:28.404Z,1.77
2022-08-25T15:08:14.363Z,1.60
2022-08-25T15:10:43.334Z,1.60
2022-08-25T15:13:10.469Z,1.70
2022-08-25T15:15:52.708Z,2.05
2022-08-25T15:18:20.773Z,1.67
2022-08-25T15:20:50.004Z,1.90
2022-08-25T15:23:17.680Z,1.67
2022-08-25T15:25:46.282Z,1.83
2022-08-25T15:28:12.957Z,1.90
2022-08-25T15:30:45.708Z,1.90
2022-08-25T15:33:13.265Z,2.10
2022-08-25T15:35:40.284Z,1.87
2022-08-25T15:38:08.114Z,2.08
2022-08-25T15:40:35.331Z,1.95
2022-08-25T15:43:02.343Z,2.08
2022-08-25T15:45:29.772Z,2.30
2022-08-25T15:47:57.248Z,2.20
2022-08-25T15:50:26.156Z,1.75
2022-08-25T15:52:52.975Z,1.80
2022-08-25T15:55:19.841Z,1.98
2022-08-25T15:57:47.373Z,2.00
2022-08-25T16:00:17.127Z,2.70
2022-08-25T16:02:45.426Z,1.98
2022-08-25T16:05:13.511Z,1.90
2022-08-25T16:07:41.001Z,2.08
2022-08-25T16:10:07.760Z,2.20
2022-08-25T16:12:34.637Z,2.60
2022-08-25T16:15:02.079Z,2.00
2022-08-25T16:17:28.492Z,2.30
2022-08-25T16:19:54.888Z,1.98
2022-08-25T16:22:21.366Z,1.60
2022-08-25T16:24:48.209Z,1.70
2022-08-25T16:27:15.183Z,1.63
2022-08-25T16:29:43.918Z,1.90
2022-08-25T16:32:13.391Z,1.83
2022-08-25T16:34:40.801Z,1.58
2022-08-25T16:37:07.477Z,2.03
2022-08-25T16:39:34.155Z,1.80
2022-08-25T16:42:01.048Z,1.80
2022-08-25T16:44:27.585Z,1.80
2022-08-25T16:46:56.045Z,1.73
2022-08-25T16:49:24.397Z,1.80
2022-08-25T16:51:57.872Z,1.60
2022-08-25T16:54:44.216Z,1.60
2022-08-25T16:57:11.739Z,1.92
2022-08-25T16:59:38.307Z,1.90
2022-08-25T17:02:06.647Z,1.97
2022-08-25T17:04:33.231Z,1.92
2022-08-25T17:06:59.873Z,1.83
2022-08-25T17:09:26.296Z,1.95
2022-08-25T17:11:56.644Z,2.00
2022-08-25T17:14:24.088Z,1.90
2022-08-25T17:16:54.559Z,1.75
2022-08-25T17:19:23.839Z,1.80
2022-08-25T17:21:50.609Z,1.80
2022-08-25T17:24:17.714Z,1.70
2022-08-25T17:26:47.314Z,2.23
2022-08-25T17:29:17.260Z,2.40
2022-08-25T17:31:46.008Z,2.67
2022-08-25T17:34:16.444Z,3.00
2022-08-25T17:36:44.214Z,2.45
2022-08-25T17:39:13.290Z,2.93
2022-08-25T17:41:43.161Z,2.72
2022-08-25T17:44:09.787Z,3.10
2022-08-25T17:46:36.724Z,3.20
2022-08-25T17:49:04.115Z,3.05
2022-08-25T17:51:32.062Z,3.43
2022-08-25T17:53:59.092Z,3.40
2022-08-25T17:56:27.779Z,3.47
2022-08-25T17:58:56.224Z,3.13
2022-08-25T18:01:28.566Z,3.10
2022-08-25T18:03:56.336Z,3.30
2022-08-25T18:06:23.981Z,3.42
2022-08-25T18:08:51.809Z,3.28
2022-08-25T18:11:21.500Z,3.08
2022-08-25T18:13:47.926Z,4.13
2022-08-25T18:16:17.123Z,3.40
2022-08-25T18:18:44.447Z,3.20
2022-08-25T18:21:14.320Z,3.50
2022-08-25T18:23:42.579Z,3.65
2022-08-25T18:26:12.945Z,3.63
2022-08-25T18:28:39.843Z,3.70
2022-08-25T18:31:06.718Z,3.40
2022-08-25T18:33:34.347Z,3.90
2022-08-25T18:36:01.995Z,4.25
2022-08-25T18:38:47.479Z,3.95
2022-08-25T18:41:13.957Z,3.87
2022-08-25T18:43:40.667Z,3.63
2022-08-25T18:46:08.328Z,4.60
2022-08-25T18:48:37.082Z,4.00
2022-08-25T18:51:04.349Z,4.45
2022-08-25T18:53:37.362Z,3.70
2022-08-25T18:56:16.331Z,4.18
2022-08-25T18:58:42.943Z,4.80
2022-08-25T19:01:13.549Z,4.22
2022-08-25T19:03:40.188Z,4.75
2022-08-25T19:06:07.088Z,5.10
2022-08-25T19:08:33.754Z,5.60
2022-08-25T19:11:00.211Z,5.90
2022-08-25T19:13:26.697Z,6.80
2022-08-25T19:15:53.309Z,7.25
2022-08-25T19:18:25.978Z,8.53
2022-08-25T19:20:52.661Z,9.10
2022-08-25T19:23:19.959Z,10.30
2022-08-25T19:25:46.742Z,10.15
2022-08-25T19:28:13.945Z,9.88
2022-08-25T19:30:49.773Z,12.07
2022-08-25T19:33:31.390Z,11.82
2022-08-25T19:36:06.242Z,13.05
2022-08-25T19:38:35.644Z,15.27
2022-08-25T19:41:13.871Z,16.67
2022-08-25T19:43:50.507Z,15.70
2022-08-25T19:46:23.248Z,17.08
2022-08-25T19:48:49.903Z,16.17
2022-08-25T19:51:17.113Z,17.15
2022-08-25T19:53:47.670Z,16.52
2022-08-25T19:56:20.229Z,18.03
2022-08-25T19:58:46.778Z,18.77
2022-08-25T20:01:14.191Z,20.50
2022-08-25T20:03:45.043Z,20.60
2022-08-25T20:06:11.871Z,19.63
2022-08-25T20:08:42.387Z,18.90
2022-08-25T20:11:08.787Z,21.27
2022-08-25T20:13:35.291Z,20.02
2022-08-25T20:16:02.032Z,19.02
2022-08-25T20:18:28.471Z,19.27
2022-08-25T20:20:55.045Z,21.07
2022-08-25T20:23:42.070Z,18.50
2022-08-25T20:26:09.185Z,18.45
2022-08-25T20:28:35.861Z,16.92
2022-08-25T20:31:02.447Z,16.63
2022-08-25T20:33:29.140Z,16.60
2022-08-25T20:35:55.822Z,14.82
2022-08-25T20:38:22.552Z,14.35
2022-08-25T20:40:49.478Z,13.68
2022-08-25T20:43:16.120Z,13.38
2022-08-25T20:45:42.841Z,11.93
2022-08-25T20:48:09.616Z,11.32
2022-08-25T20:50:38.570Z,12.48
2022-08-25T20:53:10.196Z,11.35
2022-08-25T20:55:42.544Z,11.32
2022-08-25T20:58:10.281Z,10.93
2022-08-25T21:00:36.993Z,10.75
2022-08-25T21:03:03.387Z,10.18
2022-08-25T21:05:30.006Z,10.23
2022-08-25T21:07:56.580Z,9.50
2022-08-25T21:10:23.587Z,9.57
2022-08-25T21:12:53.332Z,9.68
2022-08-25T21:15:20.252Z,9.32
2022-08-25T21:17:51.290Z,8.75
2022-08-25T21:20:18.507Z,9.30
2022-08-25T21:22:45.083Z,9.37
2022-08-25T21:25:11.863Z,9.82
2022-08-25T21:27:38.424Z,8.85
2022-08-25T21:30:06.448Z,9.27
2022-08-25T21:32:33.810Z,9.38
2022-08-25T21:35:00.321Z,8.80
2022-08-25T21:37:27.730Z,9.50
2022-08-25T21:39:54.659Z,8.93
2022-08-25T21:42:23.075Z,8.55
2022-08-25T21:44:50.744Z,8.27
2022-08-25T21:47:20.884Z,7.87
2022-08-25T21:49:48.155Z,5.65
2022-08-25T21:52:15.419Z,6.72
2022-08-25T21:54:42.069Z,5.32
2022-08-25T21:57:09.314Z,5.47
2022-08-25T21:59:38.108Z,5.37
2022-08-25T22:02:10.712Z,5.03
2022-08-25T22:04:39.484Z,4.90
2022-08-25T22:07:07.960Z,5.03
2022-08-25T22:09:35.625Z,5.05
2022-08-25T22:12:02.444Z,4.57
2022-08-25T22:14:28.860Z,4.57
2022-08-25T22:16:55.701Z,4.35
2022-08-25T22:19:23.128Z,4.45
2022-08-25T22:21:51.206Z,4.25
2022-08-25T22:24:18.692Z,4.20
2022-08-25T22:26:47.429Z,4.05
2022-08-25T22:29:24.653Z,3.60
2022-08-25T22:32:00.003Z,3.33
2022-08-25T22:34:31.674Z,3.70
2022-08-25T22:36:59.961Z,2.87
2022-08-25T22:39:27.156Z,3.13
2022-08-25T22:41:53.869Z,3.00
2022-08-25T22:44:20.420Z,3.58
2022-08-25T22:46:46.866Z,4.65
2022-08-25T22:49:13.780Z,3.00
2022-08-25T22:51:40.981Z,2.53
2022-08-25T22:54:09.617Z,2.45
2022-08-25T22:56:37.805Z,2.30
2022-08-25T22:59:07.482Z,2.05
2022-08-25T23:01:34.540Z,2.20
2022-08-25T23:04:03.361Z,1.90
2022-08-25T23:06:30.677Z,1.70
2022-08-25T23:08:57.674Z,2.08
2022-08-25T23:11:24.815Z,1.73
2022-08-25T23:13:55.319Z,1.70
2022-08-25T23:16:21.960Z,1.73
2022-08-25T23:18:48.560Z,1.58
2022-08-25T23:21:35.335Z,1.60
2022-08-25T23:24:07.811Z,1.17
2022-08-25T23:26:34.629Z,1.93
2022-08-25T23:29:03.195Z,1.15
2022-08-25T23:31:41.927Z,1.75
2022-08-25T23:34:09.749Z,1.17
2022-08-25T23:36:36.931Z,1.33
2022-08-25T23:39:04.856Z,1.47
2022-08-25T23:41:34.473Z,1.50
2022-08-25T23:44:05.253Z,1.30
2022-08-25T23:46:33.056Z,1.20
2022-08-25T23:48:59.800Z,1.48
2022-08-25T23:51:30.769Z,1.40
2022-08-25T23:53:57.663Z,1.70
2022-08-25T23:56:26.042Z,1.65
2022-08-25T23:58:52.543Z,1.92
